Terminal Aerodrome Forecast
Issued by NWS Shreveport, LA

Home | Current Version | Previous Version | Text Only | Print | Product List | Glossary On
Versions: 1 2 3 4 5 6 7 8 9 10 11 12 13 14 15 16
000
FTUS44 KSHV 040154 AAA
TAFSHV
TAF AMD
KSHV 040154Z 0402/0424 18004KT P6SM VCTS SCT040CB OVC140
      TEMPO 0402/0404 VRB15G25KT 4SM TSRA BKN040CB
     FM040400 19006KT P6SM VCSH SCT050 SCT100 BKN250
     FM041000 21005KT P6SM SCT010 BKN100 OVC150
      TEMPO 0410/0414 BKN010
     FM041600 24007KT P6SM VCTS SCT030CB BKN100 OVC150=

USA.gov is the U.S. government's official web portal to all federal, state and local government web resources and services.